createdAt,value
2023-05-05T00:01:35.640Z,13.00
2023-05-05T00:04:02.546Z,9.60
2023-05-05T00:06:29.406Z,13.10
2023-05-05T00:08:56.683Z,12.77
2023-05-05T00:11:24.417Z,9.60
2023-05-05T00:13:51.689Z,14.80
2023-05-05T00:16:18.667Z,11.97
2023-05-05T00:18:45.511Z,8.77
2023-05-05T00:21:12.392Z,12.07
2023-05-05T00:23:39.341Z,9.40
2023-05-05T00:26:06.823Z,10.03
2023-05-05T00:28:33.717Z,9.63
2023-05-05T00:31:00.722Z,8.40
2023-05-05T00:33:27.893Z,11.60
2023-05-05T00:35:54.824Z,9.50
2023-05-05T00:38:24.990Z,9.47
2023-05-05T00:40:52.116Z,10.27
2023-05-05T00:43:19.231Z,14.03
2023-05-05T00:45:48.224Z,10.50
2023-05-05T00:48:17.083Z,11.83
2023-05-05T00:50:45.171Z,10.83
2023-05-05T00:53:12.433Z,10.70
2023-05-05T00:55:39.375Z,10.50
2023-05-05T00:58:06.353Z,12.13
2023-05-05T01:00:33.461Z,13.93
2023-05-05T01:03:00.701Z,10.97
2023-05-05T01:05:33.295Z,19.27
2023-05-05T01:08:06.417Z,11.30
2023-05-05T01:10:33.391Z,12.50
2023-05-05T01:13:16.995Z,13.37
2023-05-05T01:15:50.488Z,16.53
2023-05-05T01:21:23.904Z,18.30
2023-05-05T01:24:29.762Z,16.90
2023-05-05T01:27:27.416Z,13.40
2023-05-05T01:30:31.918Z,17.53
2023-05-05T01:33:04.164Z,14.57
2023-05-05T01:35:36.770Z,17.13
2023-05-05T01:38:09.666Z,18.00
2023-05-05T01:40:47.176Z,17.70
2023-05-05T01:43:15.984Z,13.73
2023-05-05T01:45:45.069Z,15.13
2023-05-05T01:48:12.809Z,18.43
2023-05-05T01:50:42.129Z,28.53
2023-05-05T01:53:10.268Z,18.13
2023-05-05T01:55:39.635Z,17.27
2023-05-05T01:58:07.923Z,20.37
2023-05-05T02:00:35.641Z,18.70
2023-05-05T02:03:05.246Z,18.87
2023-05-05T02:05:34.515Z,20.80
2023-05-05T02:08:03.673Z,18.17
2023-05-05T02:10:31.213Z,21.23
2023-05-05T02:13:05.167Z,21.40
2023-05-05T02:15:33.865Z,19.33
2023-05-05T02:18:02.206Z,23.10
2023-05-05T02:20:31.789Z,20.90
2023-05-05T02:22:59.282Z,27.53
2023-05-05T02:25:42.171Z,23.00
2023-05-05T02:28:18.564Z,24.03
2023-05-05T02:30:51.655Z,29.60
2023-05-05T02:33:21.585Z,23.57
2023-05-05T02:35:52.204Z,22.93
2023-05-05T02:38:23.865Z,35.53
2023-05-05T02:40:52.328Z,24.13
2023-05-05T02:43:23.322Z,33.80
2023-05-05T02:45:52.346Z,30.63
2023-05-05T02:48:19.428Z,35.07
2023-05-05T02:50:46.389Z,34.27
2023-05-05T02:53:13.458Z,33.50
2023-05-05T02:55:48.659Z,36.03
2023-05-05T02:58:34.834Z,34.50
2023-05-05T03:01:22.885Z,34.73
2023-05-05T03:04:03.932Z,34.47
2023-05-05T03:06:35.795Z,31.53
2023-05-05T03:09:23.400Z,36.00
2023-05-05T03:11:57.160Z,35.70
2023-05-05T03:14:25.625Z,29.93
2023-05-05T03:16:54.910Z,30.90
2023-05-05T03:19:22.552Z,35.93
2023-05-05T03:21:49.920Z,35.57
2023-05-05T03:24:18.229Z,38.93
2023-05-05T03:26:46.741Z,41.20
2023-05-05T03:29:14.776Z,44.97
2023-05-05T03:31:42.468Z,49.87
2023-05-05T03:34:09.596Z,58.90
2023-05-05T03:36:36.543Z,49.70
2023-05-05T03:39:03.802Z,54.63
2023-05-05T03:41:30.734Z,50.63
2023-05-05T03:43:57.664Z,55.27
2023-05-05T03:46:24.578Z,49.63
2023-05-05T03:48:51.805Z,58.10
2023-05-05T03:51:18.688Z,53.77
2023-05-05T03:53:45.666Z,54.73
2023-05-05T03:56:12.606Z,53.50
2023-05-05T03:58:39.550Z,52.07
2023-05-05T04:01:06.468Z,47.33
2023-05-05T04:03:33.391Z,46.37
2023-05-05T04:06:00.610Z,48.40
2023-05-05T04:08:27.442Z,51.30
2023-05-05T04:10:54.330Z,52.70
2023-05-05T04:13:21.257Z,51.67
2023-05-05T04:15:48.170Z,61.90
2023-05-05T04:18:15.097Z,54.37
2023-05-05T04:20:42.054Z,62.60
2023-05-05T04:23:08.906Z,59.50
2023-05-05T04:25:36.090Z,55.57
2023-05-05T04:28:03.114Z,56.50
2023-05-05T04:30:30.710Z,59.63
2023-05-05T04:32:57.604Z,63.83
2023-05-05T04:35:24.474Z,60.30
2023-05-05T04:37:51.377Z,51.60
2023-05-05T04:40:18.304Z,60.47
2023-05-05T04:42:45.173Z,54.37
2023-05-05T04:45:13.231Z,55.60
2023-05-05T04:47:40.910Z,55.20
2023-05-05T04:50:09.203Z,67.57
2023-05-05T04:52:36.236Z,53.97
2023-05-05T04:55:03.197Z,57.07
2023-05-05T04:57:30.841Z,55.70
2023-05-05T04:59:59.616Z,50.53
2023-05-05T05:02:27.276Z,57.20
2023-05-05T05:04:54.122Z,52.07
2023-05-05T05:07:21.455Z,53.87
2023-05-05T05:09:48.323Z,59.03
2023-05-05T05:12:15.284Z,57.90
2023-05-05T05:14:42.188Z,67.13
2023-05-05T05:17:09.035Z,64.87
2023-05-05T05:19:36.039Z,54.30
2023-05-05T05:22:02.954Z,58.23
2023-05-05T05:24:30.146Z,50.30
2023-05-05T05:26:57.006Z,48.97
2023-05-05T05:29:23.859Z,47.33
2023-05-05T05:31:50.725Z,39.40
2023-05-05T05:34:17.589Z,41.93
2023-05-05T05:36:44.484Z,39.30
2023-05-05T05:39:11.388Z,31.77
2023-05-05T05:41:38.269Z,40.53
2023-05-05T05:44:05.593Z,39.10
2023-05-05T05:46:32.531Z,34.13
2023-05-05T05:48:59.385Z,27.80
2023-05-05T05:51:29.073Z,22.90
2023-05-05T05:53:58.149Z,29.17
2023-05-05T05:56:25.872Z,24.50
2023-05-05T05:58:52.877Z,27.33
2023-05-05T06:01:20.069Z,28.10
2023-05-05T06:03:47.011Z,25.77
2023-05-05T06:06:14.037Z,25.60
2023-05-05T06:08:40.982Z,28.70
2023-05-05T06:11:08.109Z,27.93
2023-05-05T06:13:35.025Z,27.07
2023-05-05T06:16:02.094Z,38.33
2023-05-05T06:21:08.751Z,36.17
2023-05-05T06:23:35.706Z,21.93
2023-05-05T06:26:02.518Z,23.80
2023-05-05T06:28:29.400Z,20.00
2023-05-05T06:30:56.646Z,18.77
2023-05-05T06:33:23.489Z,17.30
2023-05-05T06:35:52.341Z,18.33
2023-05-05T06:38:19.247Z,16.10
2023-05-05T06:40:48.978Z,16.00
2023-05-05T06:43:16.403Z,14.60
2023-05-05T06:45:44.036Z,14.43
2023-05-05T06:48:10.981Z,16.07
2023-05-05T06:50:37.777Z,20.63
2023-05-05T06:53:04.669Z,15.03
2023-05-05T06:55:31.740Z,13.60
2023-05-05T06:57:58.665Z,19.37
2023-05-05T07:00:25.795Z,14.80
2023-05-05T07:02:52.676Z,16.63
2023-05-05T07:05:19.826Z,14.40
2023-05-05T07:07:53.154Z,15.97
2023-05-05T07:10:21.561Z,15.40
2023-05-05T07:12:48.816Z,14.23
2023-05-05T07:15:26.881Z,14.43
2023-05-05T07:17:55.407Z,13.00
2023-05-05T07:20:22.293Z,13.10
2023-05-05T07:22:49.111Z,15.53
2023-05-05T07:25:16.330Z,11.87
2023-05-05T07:27:43.288Z,13.57
2023-05-05T07:30:14.045Z,15.90
2023-05-05T07:32:43.373Z,11.83
2023-05-05T07:35:10.987Z,13.47
2023-05-05T07:37:38.006Z,15.43
2023-05-05T07:40:05.396Z,12.60
2023-05-05T07:42:32.308Z,12.73
2023-05-05T07:44:59.119Z,11.63
2023-05-05T07:47:26.106Z,12.10
2023-05-05T07:49:52.952Z,12.27
2023-05-05T07:52:25.276Z,16.00
2023-05-05T07:55:00.289Z,19.47
2023-05-05T07:57:27.175Z,12.20
2023-05-05T07:59:54.012Z,11.80
2023-05-05T08:02:22.552Z,12.20
2023-05-05T08:04:49.689Z,13.23
2023-05-05T08:07:16.600Z,12.60
2023-05-05T08:09:43.463Z,11.03
2023-05-05T08:12:12.454Z,15.90
2023-05-05T08:14:41.111Z,13.80
2023-05-05T08:17:08.352Z,12.20
2023-05-05T08:19:35.318Z,12.97
2023-05-05T08:22:02.204Z,15.40
2023-05-05T08:24:29.074Z,13.20
2023-05-05T08:26:56.805Z,14.00
2023-05-05T08:29:23.857Z,10.83
2023-05-05T08:31:50.943Z,9.47
2023-05-05T08:34:17.836Z,9.93
2023-05-05T08:36:44.726Z,8.93
2023-05-05T08:39:11.748Z,14.20
2023-05-05T08:41:38.572Z,7.93
2023-05-05T08:44:05.480Z,11.40
2023-05-05T08:46:32.612Z,9.90
2023-05-05T08:49:01.945Z,7.70
2023-05-05T08:51:33.132Z,8.97
2023-05-05T08:54:04.085Z,7.13
2023-05-05T08:56:39.610Z,5.57
2023-05-05T08:59:06.862Z,1.90
2023-05-05T09:01:35.070Z,5.30
2023-05-05T09:04:04.074Z,4.63
2023-05-05T09:06:33.887Z,4.30
2023-05-05T09:09:01.682Z,5.00
2023-05-05T09:11:28.637Z,9.93
2023-05-05T09:13:56.139Z,5.73
2023-05-05T09:16:23.296Z,4.53
2023-05-05T09:18:50.160Z,5.90
2023-05-05T09:21:21.479Z,5.53
2023-05-05T09:24:11.001Z,5.40
2023-05-05T09:26:41.122Z,2.80
2023-05-05T09:29:08.201Z,4.83
2023-05-05T09:31:36.851Z,4.33
2023-05-05T09:34:15.132Z,6.17
2023-05-05T09:36:49.909Z,4.30
2023-05-05T09:39:20.433Z,4.03
2023-05-05T09:41:47.476Z,3.73
2023-05-05T09:44:17.490Z,2.47
2023-05-05T09:46:53.294Z,3.23
2023-05-05T09:49:26.951Z,3.00
2023-05-05T09:51:54.878Z,3.07
2023-05-05T09:54:29.917Z,3.53
2023-05-05T09:56:57.551Z,10.50
2023-05-05T09:59:24.904Z,4.97
2023-05-05T10:01:52.416Z,3.60
2023-05-05T10:04:29.179Z,2.93
2023-05-05T10:06:57.300Z,3.43
2023-05-05T10:09:27.471Z,3.63
2023-05-05T10:11:55.827Z,4.27
2023-05-05T10:14:25.375Z,3.00
2023-05-05T10:16:54.271Z,2.13
2023-05-05T10:19:23.812Z,3.70
2023-05-05T10:21:53.052Z,2.70
2023-05-05T10:24:47.268Z,5.50
2023-05-05T10:27:20.116Z,3.80
2023-05-05T10:30:06.312Z,3.50
2023-05-05T10:35:19.916Z,6.20
2023-05-05T10:37:47.800Z,4.00
2023-05-05T10:40:15.421Z,6.00
2023-05-05T10:42:42.989Z,3.57
2023-05-05T10:45:10.121Z,8.47
2023-05-05T10:47:38.348Z,4.87
2023-05-05T10:50:26.187Z,4.27
2023-05-05T10:53:22.075Z,6.30
2023-05-05T10:56:14.722Z,2.87
2023-05-05T10:58:56.051Z,3.57
2023-05-05T11:01:34.033Z,5.27
2023-05-05T11:04:19.628Z,3.90
2023-05-05T11:07:09.627Z,3.30
2023-05-05T11:10:03.548Z,5.30
2023-05-05T11:12:32.207Z,6.00
2023-05-05T11:15:24.069Z,8.70
2023-05-05T11:17:51.088Z,3.30
2023-05-05T11:20:18.066Z,4.60
2023-05-05T11:23:03.390Z,2.93
2023-05-05T11:25:40.665Z,1.83
2023-05-05T11:28:16.533Z,2.60
2023-05-05T11:31:04.268Z,9.13
2023-05-05T11:33:32.014Z,1.90
2023-05-05T11:36:01.859Z,2.27
2023-05-05T11:39:06.703Z,5.87
2023-05-05T11:41:43.228Z,9.60
2023-05-05T11:44:17.350Z,4.03
2023-05-05T11:46:53.214Z,4.93
2023-05-05T11:49:30.627Z,2.80
2023-05-05T11:51:58.576Z,2.67
2023-05-05T11:54:25.897Z,1.80
2023-05-05T11:56:57.650Z,7.33
2023-05-05T11:59:24.830Z,2.37
2023-05-05T12:01:51.890Z,1.40
2023-05-05T12:04:19.556Z,1.13
2023-05-05T12:06:46.934Z,3.23
2023-05-05T12:09:22.183Z,3.40
2023-05-05T12:11:52.679Z,1.30
2023-05-05T12:14:20.140Z,1.97
2023-05-05T12:17:04.484Z,2.63
2023-05-05T12:19:33.673Z,10.03
2023-05-05T12:22:04.706Z,2.87
2023-05-05T12:24:31.759Z,2.60
2023-05-05T12:27:08.969Z,2.80
2023-05-05T12:29:35.877Z,1.80
2023-05-05T12:32:03.458Z,3.17
2023-05-05T12:34:32.298Z,3.17
2023-05-05T12:36:59.349Z,2.60
2023-05-05T12:39:38.402Z,2.00
2023-05-05T12:42:06.509Z,5.00
2023-05-05T12:44:40.396Z,3.23
2023-05-05T12:47:07.929Z,1.77
2023-05-05T12:49:50.908Z,3.27
2023-05-05T12:52:18.612Z,1.93
2023-05-05T12:54:56.018Z,1.40
2023-05-05T12:57:23.476Z,3.90
2023-05-05T12:59:51.326Z,2.07
2023-05-05T13:02:18.670Z,2.50
2023-05-05T13:04:54.936Z,3.67
2023-05-05T13:07:22.379Z,1.53
2023-05-05T13:09:50.228Z,8.43
2023-05-05T13:12:21.715Z,3.47
2023-05-05T13:14:49.520Z,2.70
2023-05-05T13:17:16.396Z,1.70
2023-05-05T13:19:46.393Z,2.17
2023-05-05T13:22:13.967Z,7.07
2023-05-05T13:24:51.706Z,2.30
2023-05-05T13:27:20.188Z,1.93
2023-05-05T13:29:47.004Z,2.90
2023-05-05T13:32:13.962Z,6.23
2023-05-05T13:34:41.605Z,1.83
2023-05-05T13:37:08.833Z,1.70
2023-05-05T13:39:36.024Z,1.50
2023-05-05T13:42:03.086Z,5.63
2023-05-05T13:44:29.976Z,2.50
2023-05-05T13:46:56.943Z,5.83
2023-05-05T13:49:24.111Z,7.73
2023-05-05T13:51:50.927Z,7.70
2023-05-05T13:54:20.570Z,4.53
2023-05-05T13:56:47.456Z,7.27
2023-05-05T13:59:14.338Z,4.37
2023-05-05T14:01:41.329Z,3.07
2023-05-05T14:04:08.475Z,6.73
2023-05-05T14:06:36.255Z,2.67
2023-05-05T14:09:06.096Z,1.40
2023-05-05T14:11:33.648Z,6.63
2023-05-05T14:14:01.086Z,1.30
2023-05-05T14:16:28.020Z,1.17
2023-05-05T14:18:54.872Z,8.83
2023-05-05T14:21:21.705Z,14.50
2023-05-05T14:23:48.656Z,17.50
2023-05-05T14:26:15.509Z,3.93
2023-05-05T14:28:43.597Z,2.30
2023-05-05T14:31:11.355Z,4.03
2023-05-05T14:33:38.193Z,2.90
2023-05-05T14:36:05.448Z,2.50
2023-05-05T14:38:32.393Z,1.20
2023-05-05T14:40:59.634Z,7.03
2023-05-05T14:43:26.466Z,2.90
2023-05-05T14:45:53.404Z,2.80
2023-05-05T14:48:22.576Z,6.90
2023-05-05T14:50:50.129Z,2.57
2023-05-05T14:53:19.138Z,3.37
2023-05-05T14:55:46.061Z,4.50
2023-05-05T14:58:12.930Z,4.60
2023-05-05T15:00:39.803Z,5.10
2023-05-05T15:03:06.975Z,6.20
2023-05-05T15:05:34.311Z,7.27
2023-05-05T15:08:01.231Z,7.37
2023-05-05T15:10:28.086Z,8.10
2023-05-05T15:12:54.970Z,9.73
2023-05-05T15:15:21.906Z,19.60
2023-05-05T15:17:48.792Z,9.73
2023-05-05T15:20:15.631Z,11.80
2023-05-05T15:22:42.445Z,11.97
2023-05-05T15:25:12.584Z,18.20
2023-05-05T15:27:40.068Z,10.50
2023-05-05T15:30:07.653Z,11.37
2023-05-05T15:32:34.706Z,10.40
2023-05-05T15:35:01.582Z,9.03
2023-05-05T15:37:29.113Z,8.07
2023-05-05T15:39:56.543Z,9.63
2023-05-05T15:42:23.575Z,7.60
2023-05-05T15:44:50.801Z,8.80
2023-05-05T15:47:17.953Z,8.07
2023-05-05T15:49:44.848Z,9.40
2023-05-05T15:52:12.921Z,7.90
2023-05-05T15:54:39.872Z,8.67
2023-05-05T15:57:06.854Z,13.53
2023-05-05T15:59:33.669Z,38.37
2023-05-05T16:02:00.566Z,8.27
2023-05-05T16:04:27.370Z,8.07
2023-05-05T16:06:55.473Z,17.77
2023-05-05T16:09:22.303Z,8.10
2023-05-05T16:11:49.222Z,8.23
2023-05-05T16:14:16.135Z,13.83
2023-05-05T16:16:43.010Z,8.70
2023-05-05T16:19:09.844Z,15.33
2023-05-05T16:21:36.713Z,8.23
2023-05-05T16:24:03.648Z,10.70
2023-05-05T16:26:30.482Z,7.70
2023-05-05T16:28:57.384Z,6.20
2023-05-05T16:31:24.271Z,7.53
2023-05-05T16:33:51.129Z,7.87
2023-05-05T16:36:18.050Z,8.73
2023-05-05T16:38:44.953Z,7.60
2023-05-05T16:41:11.929Z,7.13
2023-05-05T16:43:38.881Z,7.37
2023-05-05T16:46:06.754Z,7.53
2023-05-05T16:48:33.712Z,8.17
2023-05-05T16:51:00.618Z,8.20
2023-05-05T16:53:27.494Z,18.43
2023-05-05T16:55:54.354Z,6.70
2023-05-05T16:58:23.051Z,7.07
2023-05-05T17:00:51.011Z,10.87
2023-05-05T17:03:18.805Z,9.90
2023-05-05T17:05:49.666Z,9.57
2023-05-05T17:08:17.034Z,11.13
2023-05-05T17:10:44.981Z,9.10
2023-05-05T17:13:13.294Z,11.43
2023-05-05T17:15:41.091Z,12.40
2023-05-05T17:18:08.858Z,16.10
2023-05-05T17:20:36.492Z,10.50
2023-05-05T17:23:03.452Z,12.90
2023-05-05T17:25:30.497Z,10.37
2023-05-05T17:27:57.664Z,10.53
2023-05-05T17:30:24.619Z,9.63
2023-05-05T17:32:51.495Z,12.07
2023-05-05T17:35:18.582Z,10.67
2023-05-05T17:37:45.754Z,10.23
2023-05-05T17:40:12.763Z,10.70
2023-05-05T17:42:39.713Z,11.60
2023-05-05T17:45:08.097Z,13.00
2023-05-05T17:47:35.479Z,13.10
2023-05-05T17:50:02.576Z,10.53
2023-05-05T17:52:29.689Z,12.07
2023-05-05T17:54:56.667Z,10.27
2023-05-05T17:57:23.533Z,10.17
2023-05-05T17:59:52.006Z,12.70
2023-05-05T18:02:19.393Z,15.00
2023-05-05T18:04:46.637Z,14.93
2023-05-05T18:07:14.840Z,15.20
2023-05-05T18:09:41.875Z,11.07
2023-05-05T18:12:08.813Z,13.63
2023-05-05T18:14:35.906Z,15.30
2023-05-05T18:17:02.843Z,11.63
2023-05-05T18:19:29.921Z,13.90
2023-05-05T18:21:57.648Z,14.07
2023-05-05T18:24:24.804Z,15.17
2023-05-05T18:26:52.454Z,16.20
2023-05-05T18:29:20.322Z,14.57
2023-05-05T18:31:52.092Z,17.00
2023-05-05T18:34:21.463Z,13.70
2023-05-05T18:36:50.477Z,15.57
2023-05-05T18:39:17.994Z,15.43
2023-05-05T18:41:44.965Z,21.03
2023-05-05T18:44:12.111Z,13.60
2023-05-05T18:46:39.039Z,14.87
2023-05-05T18:49:06.250Z,15.43
2023-05-05T18:51:33.153Z,14.40
2023-05-05T18:54:01.064Z,13.00
2023-05-05T18:56:28.226Z,14.87
2023-05-05T18:58:55.100Z,14.30
2023-05-05T19:01:22.321Z,12.43
2023-05-05T19:03:49.950Z,13.60
2023-05-05T19:06:17.626Z,13.30
2023-05-05T19:08:45.759Z,20.53
2023-05-05T19:11:14.854Z,13.07
2023-05-05T19:13:41.987Z,22.17
2023-05-05T19:16:09.070Z,19.60
2023-05-05T19:18:35.902Z,17.33
2023-05-05T19:21:02.789Z,14.60
2023-05-05T19:23:29.640Z,17.70
2023-05-05T19:25:56.571Z,16.80
2023-05-05T19:28:23.655Z,27.23
2023-05-05T19:30:52.097Z,21.03
2023-05-05T19:33:18.972Z,21.57
2023-05-05T19:35:45.956Z,21.87
2023-05-05T19:38:13.029Z,25.40
2023-05-05T19:40:40.138Z,21.87
2023-05-05T19:43:07.496Z,19.27
2023-05-05T19:45:34.416Z,24.87
2023-05-05T19:48:01.848Z,23.90
2023-05-05T19:50:30.475Z,24.93
2023-05-05T19:52:57.902Z,21.00
2023-05-05T19:55:25.011Z,21.87
2023-05-05T19:57:51.966Z,26.30
2023-05-05T20:00:19.857Z,26.70
2023-05-05T20:02:48.735Z,23.20
2023-05-05T20:05:17.571Z,27.10
2023-05-05T20:07:46.497Z,28.03
2023-05-05T20:10:13.740Z,20.10
2023-05-05T20:12:47.914Z,28.53
2023-05-05T20:15:19.330Z,27.93
2023-05-05T20:17:47.562Z,32.23
2023-05-05T20:20:20.584Z,31.57
2023-05-05T20:22:48.250Z,42.40
2023-05-05T20:25:16.442Z,32.57
2023-05-05T20:27:43.742Z,36.60
2023-05-05T20:30:11.834Z,32.83
2023-05-05T20:32:39.140Z,34.23
2023-05-05T20:35:06.478Z,35.23
2023-05-05T20:37:33.506Z,38.80
2023-05-05T20:40:00.454Z,34.93
2023-05-05T20:42:27.992Z,32.40
2023-05-05T20:44:55.030Z,35.53
2023-05-05T20:47:22.031Z,31.30
2023-05-05T20:49:48.874Z,38.60
2023-05-05T20:52:15.795Z,37.47
2023-05-05T20:54:42.676Z,33.60
2023-05-05T20:57:09.527Z,34.40
2023-05-05T20:59:36.364Z,36.13
2023-05-05T21:02:03.279Z,41.17
2023-05-05T21:04:30.215Z,33.77
2023-05-05T21:06:57.491Z,32.23
2023-05-05T21:09:24.446Z,34.73
2023-05-05T21:11:51.353Z,35.17
2023-05-05T21:14:18.197Z,32.77
2023-05-05T21:16:45.143Z,37.73
2023-05-05T21:19:12.023Z,32.83
2023-05-05T21:21:38.837Z,36.77
2023-05-05T21:24:08.086Z,29.20
2023-05-05T21:26:35.097Z,32.47
2023-05-05T21:29:01.945Z,34.30
2023-05-05T21:31:28.866Z,32.67
2023-05-05T21:33:55.818Z,29.80
2023-05-05T21:36:22.760Z,27.43
2023-05-05T21:38:49.822Z,30.67
2023-05-05T21:41:16.996Z,28.53
2023-05-05T21:43:43.886Z,27.13
2023-05-05T21:46:10.971Z,26.07
2023-05-05T21:48:39.121Z,30.03
2023-05-05T21:51:06.852Z,27.20
2023-05-05T21:53:33.843Z,21.27
2023-05-05T21:56:01.132Z,30.83
2023-05-05T21:58:28.003Z,25.20
2023-05-05T22:00:55.063Z,22.33
2023-05-05T22:03:22.067Z,27.17
2023-05-05T22:05:49.046Z,32.73
2023-05-05T22:08:15.857Z,28.67
2023-05-05T22:10:42.806Z,24.83
2023-05-05T22:13:10.779Z,26.97
2023-05-05T22:15:45.864Z,31.23
2023-05-05T22:18:13.910Z,28.87
2023-05-05T22:20:40.909Z,25.37
2023-05-05T22:23:07.753Z,27.20
2023-05-05T22:25:34.644Z,27.00
2023-05-05T22:28:01.557Z,30.27
2023-05-05T22:30:28.416Z,28.13
2023-05-05T22:32:55.348Z,31.03
2023-05-05T22:35:22.349Z,31.53
2023-05-05T22:37:49.208Z,30.77
2023-05-05T22:40:16.211Z,28.43
2023-05-05T22:42:43.165Z,29.33
2023-05-05T22:45:10.728Z,28.33
2023-05-05T22:47:37.790Z,27.43
2023-05-05T22:50:04.989Z,31.10
2023-05-05T22:52:32.132Z,34.13
2023-05-05T22:54:59.046Z,30.93
2023-05-05T22:57:25.960Z,33.47
2023-05-05T22:59:52.874Z,37.67
2023-05-05T23:02:19.790Z,33.90
2023-05-05T23:04:46.799Z,40.10
2023-05-05T23:07:13.728Z,36.43
2023-05-05T23:09:41.135Z,35.07
2023-05-05T23:12:08.027Z,36.07
2023-05-05T23:14:35.699Z,37.13
2023-05-05T23:17:02.735Z,35.50
2023-05-05T23:19:32.219Z,35.10
2023-05-05T23:21:59.862Z,34.43
2023-05-05T23:24:27.547Z,37.53
2023-05-05T23:26:54.990Z,37.00
2023-05-05T23:29:21.890Z,32.70
2023-05-05T23:31:49.000Z,30.87
2023-05-05T23:34:15.876Z,28.83
2023-05-05T23:36:43.000Z,33.10
2023-05-05T23:39:09.892Z,29.63
2023-05-05T23:41:36.760Z,30.43
2023-05-05T23:44:03.627Z,34.00
2023-05-05T23:46:30.698Z,34.80
2023-05-05T23:48:57.621Z,29.13
2023-05-05T23:51:24.513Z,36.73
2023-05-05T23:53:51.634Z,28.73
2023-05-05T23:56:18.557Z,35.27
2023-05-05T23:58:45.378Z,31.60
